Duncan, Canada
Current Conditions -  °F | °C
As of 7:19 PM on Friday 21 Nov 2014 (Local Time) from CYYJ Reporting Station
Light Rain Light Rain  
Wind Chill: 46°   Ceiling: 4800
Heat Index: 48°   Visibility: 20mi
Dew Point: 46°   Wind: 5mph
Humidity: 93%   Direction: 250°WSW
Pressure: 29.26"   Gusts: NA
Location:  48.78°N, 123.7°W
Report Text: CYYJ 220319Z 25004KT 120V270 20SM -RA FEW020 BKN048 BKN120 09/08 A2926 RMK SC2SC3AC1 SLP910 DENSITY ALT 100FT
Loading
Personal Weather Stations






























Interactive Weather Map New forecast layout! Learn more

10-Day Weather Forecast

Advertisements
Track Severe Weather on mobile